Time,TemperatureF,DewpointF,PressureIn,WindDirection,WindDirectionDegrees,WindSpeedMPH,WindSpeedGustMPH,Humidity,HourlyPrecipIn,Conditions,Clouds,dailyrainin,SoftwareType,DateUTC
2013-05-14 00:00:00,59.1,49.7,30.18,North,0,7.0,7.0,71,0.00,,---,0.00,VWS V14.00,2013-05-14 04:00:00,
2013-05-14 00:01:00,59.1,49.7,30.18,North,1,6.0,7.0,71,0.00,,---,0.00,VWS V14.00,2013-05-14 04:01:00,
2013-05-14 00:06:00,59.1,49.0,30.18,North,10,6.0,7.0,69,0.00,,---,0.00,VWS V14.00,2013-05-14 04:06:00,
2013-05-14 00:11:00,59.1,49.0,30.18,North,3,5.0,7.0,69,0.00,,---,0.00,VWS V14.00,2013-05-14 04:11:00,
2013-05-14 00:16:00,59.1,49.0,30.18,North,0,5.0,8.0,69,0.00,,---,0.00,VWS V14.00,2013-05-14 04:16:00,
2013-05-14 00:21:00,59.1,49.7,30.18,North,2,7.0,8.0,71,0.00,,---,0.00,VWS V14.00,2013-05-14 04:21:00,
2013-05-14 00:26:00,59.1,49.7,30.20,NNE,24,8.0,10.0,71,0.00,,---,0.00,VWS V14.00,2013-05-14 04:26:00,
2013-05-14 00:31:00,59.0,50.0,30.19,North,8,7.0,8.0,72,0.00,,---,0.00,VWS V14.00,2013-05-14 04:31:00,
2013-05-14 00:36:00,59.0,50.7,30.19,North,4,9.0,10.0,74,0.00,,---,0.00,VWS V14.00,2013-05-14 04:36:00,
2013-05-14 00:41:00,59.0,48.9,30.20,NNE,12,8.0,11.0,69,0.00,,---,0.00,VWS V14.00,2013-05-14 04:41:00,
2013-05-14 00:46:00,58.9,49.2,30.20,North,0,7.0,11.0,70,0.00,,---,0.00,VWS V14.00,2013-05-14 04:46:00,
2013-05-14 00:51:00,58.8,48.7,30.19,North,8,8.0,11.0,69,0.00,,---,0.00,VWS V14.00,2013-05-14 04:51:00,
2013-05-14 00:56:00,58.7,48.2,30.19,NNE,24,11.0,12.0,68,0.00,,---,0.00,VWS V14.00,2013-05-14 04:56:00,
2013-05-14 01:01:00,58.7,47.8,30.20,NNE,22,9.0,13.0,67,0.00,,---,0.00,VWS V14.00,2013-05-14 05:01:00,
2013-05-14 01:06:00,58.5,48.4,30.20,NNE,29,11.0,14.0,69,0.00,,---,0.00,VWS V14.00,2013-05-14 05:06:00,
2013-05-14 01:11:00,58.5,48.8,30.20,NNE,12,8.0,14.0,70,0.00,,---,0.00,VWS V14.00,2013-05-14 05:11:00,
2013-05-14 01:16:00,58.4,48.7,30.20,NNE,23,10.0,14.0,70,0.00,,---,0.00,VWS V14.00,2013-05-14 05:16:00,
2013-05-14 01:21:00,58.3,48.2,30.21,NNE,25,8.0,14.0,69,0.00,,---,0.00,VWS V14.00,2013-05-14 05:21:00,
2013-05-14 01:26:00,58.2,47.7,30.20,NE,37,6.0,14.0,68,0.00,,---,0.00,VWS V14.00,2013-05-14 05:26:00,
2013-05-14 01:31:00,58.2,48.5,30.20,NNE,20,9.0,11.0,70,0.00,,---,0.00,VWS V14.00,2013-05-14 05:31:00,
2013-05-14 01:36:00,58.1,47.6,30.20,NNE,31,6.0,11.0,68,0.00,,---,0.00,VWS V14.00,2013-05-14 05:36:00,
2013-05-14 01:41:00,58.0,47.9,30.20,NNE,14,8.0,11.0,69,0.00,,---,0.00,VWS V14.00,2013-05-14 05:41:00,
2013-05-14 01:46:00,57.9,47.8,30.20,NNE,14,5.0,11.0,69,0.00,,---,0.00,VWS V14.00,2013-05-14 05:46:00,
2013-05-14 01:51:00,57.8,47.3,30.20,NNE,28,6.0,11.0,68,0.00,,---,0.00,VWS V14.00,2013-05-14 05:51:00,
2013-05-14 01:56:00,57.7,47.2,30.20,NNE,29,5.0,11.0,68,0.00,,---,0.00,VWS V14.00,2013-05-14 05:56:00,
2013-05-14 02:01:00,57.6,47.1,30.19,NE,36,5.0,8.0,68,0.00,,---,0.00,VWS V14.00,2013-05-14 06:01:00,
2013-05-14 02:06:00,57.5,47.0,30.19,NNE,27,6.0,8.0,68,0.00,,---,0.00,VWS V14.00,2013-05-14 06:06:00,
2013-05-14 02:11:00,57.4,47.3,30.20,NNE,28,1.0,8.0,69,0.00,,---,0.00,VWS V14.00,2013-05-14 06:11:00,
2013-05-14 02:16:00,57.4,46.9,30.19,NNE,18,4.0,8.0,68,0.00,,---,0.00,VWS V14.00,2013-05-14 06:16:00,
2013-05-14 02:21:00,57.4,47.3,30.20,NNE,15,6.0,8.0,69,0.00,,---,0.00,VWS V14.00,2013-05-14 06:21:00,
2013-05-14 02:26:00,57.4,48.1,30.20,North,3,9.0,10.0,71,0.00,,---,0.00,VWS V14.00,2013-05-14 06:26:00,
2013-05-14 02:31:00,57.5,48.2,30.20,North,6,9.0,11.0,71,0.00,,---,0.00,VWS V14.00,2013-05-14 06:31:00,
2013-05-14 02:36:00,57.5,48.6,30.19,North,7,8.0,12.0,72,0.00,,---,0.00,VWS V14.00,2013-05-14 06:36:00,
2013-05-14 02:41:00,57.5,48.6,30.20,North,7,9.0,13.0,72,0.00,,---,0.00,VWS V14.00,2013-05-14 06:41:00,
2013-05-14 02:46:00,57.5,48.9,30.19,North,7,10.0,13.0,73,0.00,,---,0.00,VWS V14.00,2013-05-14 06:46:00,
2013-05-14 02:51:00,57.5,48.9,30.19,NNE,26,9.0,13.0,73,0.00,,---,0.00,VWS V14.00,2013-05-14 06:51:00,
2013-05-14 02:56:00,57.4,48.5,30.19,North,11,7.0,13.0,72,0.00,,---,0.00,VWS V14.00,2013-05-14 06:56:00,
2013-05-14 03:01:00,57.3,48.7,30.19,North,11,7.0,9.0,73,0.00,,---,0.00,VWS V14.00,2013-05-14 07:01:00,
2013-05-14 03:06:00,57.3,48.0,30.19,NNE,25,8.0,11.0,71,0.00,,---,0.00,VWS V14.00,2013-05-14 07:06:00,
2013-05-14 03:11:00,57.2,48.6,30.19,NNE,24,9.0,12.0,73,0.00,,---,0.00,VWS V14.00,2013-05-14 07:11:00,
2013-05-14 03:16:00,57.2,48.6,30.19,NNE,28,13.0,13.0,73,0.00,,---,0.00,VWS V14.00,2013-05-14 07:16:00,
2013-05-14 03:21:00,57.1,48.2,30.19,North,10,12.0,15.0,72,0.00,,---,0.00,VWS V14.00,2013-05-14 07:21:00,
2013-05-14 03:26:00,57.2,47.5,30.20,NNE,26,11.0,15.0,70,0.00,,---,0.00,VWS V14.00,2013-05-14 07:26:00,
2013-05-14 03:31:00,57.1,48.2,30.20,NNE,13,8.0,14.0,72,0.00,,---,0.00,VWS V14.00,2013-05-14 07:31:00,
2013-05-14 03:36:00,57.1,48.5,30.20,NNE,14,9.0,14.0,73,0.00,,---,0.00,VWS V14.00,2013-05-14 07:36:00,
2013-05-14 03:41:00,57.0,48.8,30.20,NNE,17,10.0,14.0,74,0.00,,---,0.00,VWS V14.00,2013-05-14 07:41:00,
2013-05-14 03:46:00,56.9,48.3,30.20,North,6,7.0,14.0,73,0.00,,---,0.00,VWS V14.00,2013-05-14 07:46:00,
2013-05-14 03:51:00,56.8,48.2,30.20,North,6,6.0,14.0,73,0.00,,---,0.00,VWS V14.00,2013-05-14 07:51:00,
2013-05-14 03:56:00,56.7,47.8,30.20,North,10,6.0,14.0,72,0.00,,---,0.00,VWS V14.00,2013-05-14 07:56:00,
2013-05-14 04:01:00,56.6,47.3,30.20,NNE,12,7.0,9.0,71,0.00,,---,0.00,VWS V14.00,2013-05-14 08:01:00,
2013-05-14 04:06:00,56.5,47.6,30.21,NNE,17,2.0,11.0,72,0.00,,---,0.00,VWS V14.00,2013-05-14 08:06:00,
2013-05-14 04:11:00,56.4,47.1,30.21,NNE,28,4.0,11.0,71,0.00,,---,0.00,VWS V14.00,2013-05-14 08:11:00,
2013-05-14 04:16:00,56.2,46.6,30.21,NNE,27,2.0,11.0,70,0.00,,---,0.00,VWS V14.00,2013-05-14 08:16:00,
2013-05-14 04:21:00,56.1,46.8,30.21,NNE,27,4.0,11.0,71,0.00,,---,0.00,VWS V14.00,2013-05-14 08:21:00,
2013-05-14 04:26:00,56.1,46.5,30.21,NNE,25,1.0,11.0,70,0.00,,---,0.00,VWS V14.00,2013-05-14 08:26:00,
2013-05-14 04:31:00,56.0,46.7,30.21,North,11,2.0,3.0,71,0.00,,---,0.00,VWS V14.00,2013-05-14 08:31:00,
2013-05-14 04:36:00,56.0,47.1,30.21,North,4,3.0,4.0,72,0.00,,---,0.00,VWS V14.00,2013-05-14 08:36:00,
2013-05-14 04:41:00,55.9,48.1,30.22,North,0,4.0,5.0,75,0.00,,---,0.00,VWS V14.00,2013-05-14 08:41:00,
2013-05-14 04:46:00,55.8,48.4,30.21,North,0,3.0,5.0,76,0.00,,---,0.00,VWS V14.00,2013-05-14 08:46:00,
2013-05-14 04:51:00,55.8,48.4,30.21,North,0,3.0,5.0,76,0.00,,---,0.00,VWS V14.00,2013-05-14 08:51:00,
2013-05-14 04:56:00,55.7,48.3,30.21,North,0,4.0,5.0,76,0.00,,---,0.00,VWS V14.00,2013-05-14 08:56:00,
2013-05-14 05:01:00,55.7,47.5,30.21,North,0,4.0,5.0,74,0.00,,---,0.00,VWS V14.00,2013-05-14 09:01:00,
2013-05-14 05:06:00,55.6,47.5,30.21,North,359,3.0,5.0,74,0.00,,---,0.00,VWS V14.00,2013-05-14 09:06:00,
2013-05-14 05:11:00,55.5,48.1,30.22,North,0,4.0,6.0,76,0.00,,---,0.00,VWS V14.00,2013-05-14 09:11:00,
2013-05-14 05:16:00,55.5,48.1,30.22,North,359,4.0,6.0,76,0.00,,---,0.00,VWS V14.00,2013-05-14 09:16:00,
2013-05-14 05:21:00,55.3,47.5,30.22,North,357,2.0,6.0,75,0.00,,---,0.00,VWS V14.00,2013-05-14 09:21:00,
2013-05-14 05:26:00,55.2,48.1,30.22,NNW,347,3.0,6.0,77,0.00,,---,0.00,VWS V14.00,2013-05-14 09:26:00,
2013-05-14 05:31:00,55.1,48.0,30.22,NNW,346,4.0,6.0,77,0.00,,---,0.00,VWS V14.00,2013-05-14 09:31:00,
2013-05-14 05:36:00,55.0,48.6,30.22,NNW,343,5.0,6.0,79,0.00,,---,0.00,VWS V14.00,2013-05-14 09:36:00,
2013-05-14 05:41:00,54.9,48.9,30.21,NNW,346,3.0,6.0,80,0.00,,---,0.00,VWS V14.00,2013-05-14 09:41:00,
2013-05-14 05:46:00,54.8,48.8,30.22,NNW,345,6.0,7.0,80,0.00,,---,0.00,VWS V14.00,2013-05-14 09:46:00,
2013-05-14 05:51:00,54.7,49.0,30.22,NNW,343,7.0,7.0,81,0.00,,---,0.00,VWS V14.00,2013-05-14 09:51:00,
2013-05-14 05:56:00,54.7,49.0,30.22,NNW,344,6.0,8.0,81,0.00,,---,0.00,VWS V14.00,2013-05-14 09:56:00,
2013-05-14 06:01:00,54.6,48.9,30.23,NNW,340,5.0,6.0,81,0.00,,---,0.00,VWS V14.00,2013-05-14 10:01:00,
2013-05-14 06:06:00,54.5,49.1,30.23,NNW,345,7.0,8.0,82,0.00,,---,0.00,VWS V14.00,2013-05-14 10:06:00,
2013-05-14 06:11:00,54.4,48.7,30.23,NNW,347,6.0,8.0,81,0.00,,---,0.00,VWS V14.00,2013-05-14 10:11:00,
2013-05-14 06:16:00,54.3,47.9,30.23,NNW,345,7.0,8.0,79,0.00,,---,0.00,VWS V14.00,2013-05-14 10:16:00,
2013-05-14 06:21:00,54.2,48.2,30.23,NNW,346,7.0,9.0,80,0.00,,---,0.00,VWS V14.00,2013-05-14 10:21:00,
2013-05-14 06:26:00,54.2,48.2,30.24,NNW,337,7.0,9.0,80,0.00,,---,0.00,VWS V14.00,2013-05-14 10:26:00,
2013-05-14 06:31:00,54.1,48.1,30.24,NNW,341,7.0,8.0,80,0.00,,---,0.00,VWS V14.00,2013-05-14 10:31:00,
2013-05-14 06:36:00,54.0,48.0,30.24,NNW,339,6.0,8.0,80,0.00,,---,0.00,VWS V14.00,2013-05-14 10:36:00,
2013-05-14 06:41:00,54.0,48.0,30.24,NNW,344,6.0,8.0,80,0.00,,---,0.00,VWS V14.00,2013-05-14 10:41:00,
2013-05-14 06:46:00,54.0,48.0,30.24,NNW,345,6.0,8.0,80,0.00,,---,0.00,VWS V14.00,2013-05-14 10:46:00,
2013-05-14 06:51:00,54.0,48.3,30.24,NNW,341,7.0,9.0,81,0.00,,---,0.00,VWS V14.00,2013-05-14 10:51:00,
2013-05-14 06:56:00,54.0,48.0,30.24,North,351,8.0,9.0,80,0.00,,---,0.00,VWS V14.00,2013-05-14 10:56:00,
2013-05-14 07:01:00,54.0,48.3,30.25,NNW,338,7.0,8.0,81,0.00,,---,0.00,VWS V14.00,2013-05-14 11:01:00,
2013-05-14 07:06:00,54.1,48.1,30.25,NNW,346,7.0,9.0,80,0.00,,---,0.00,VWS V14.00,2013-05-14 11:06:00,
2013-05-14 07:11:00,54.1,48.1,30.25,NNW,346,9.0,10.0,80,0.00,,---,0.00,VWS V14.00,2013-05-14 11:11:00,
2013-05-14 07:16:00,54.1,47.4,30.25,NNW,344,7.0,10.0,78,0.00,,---,0.00,VWS V14.00,2013-05-14 11:16:00,
2013-05-14 07:21:00,54.1,47.4,30.26,NNW,346,6.0,11.0,78,0.00,,---,0.00,VWS V14.00,2013-05-14 11:21:00,
2013-05-14 07:26:00,54.2,47.5,30.26,NNW,346,7.0,12.0,78,0.00,,---,0.00,VWS V14.00,2013-05-14 11:26:00,
2013-05-14 07:31:00,54.3,47.6,30.25,NNW,347,10.0,11.0,78,0.00,,---,0.00,VWS V14.00,2013-05-14 11:31:00,
2013-05-14 07:36:00,54.4,48.0,30.26,North,351,11.0,12.0,79,0.00,,---,0.00,VWS V14.00,2013-05-14 11:36:00,
2013-05-14 07:41:00,54.5,47.8,30.26,North,350,8.0,12.0,78,0.00,,---,0.00,VWS V14.00,2013-05-14 11:41:00,
2013-05-14 07:46:00,54.5,47.8,30.26,NNW,346,9.0,12.0,78,0.00,,---,0.00,VWS V14.00,2013-05-14 11:46:00,
2013-05-14 07:51:00,54.6,47.5,30.27,North,350,10.0,12.0,77,0.00,,---,0.00,VWS V14.00,2013-05-14 11:51:00,
2013-05-14 07:56:00,54.7,46.6,30.26,North,355,9.0,13.0,74,0.00,,---,0.00,VWS V14.00,2013-05-14 11:56:00,
2013-05-14 08:01:00,54.8,47.4,30.27,North,356,8.0,12.0,76,0.00,,---,0.00,VWS V14.00,2013-05-14 12:01:00,
2013-05-14 08:06:00,54.9,47.1,30.27,North,359,8.0,12.0,75,0.00,,---,0.00,VWS V14.00,2013-05-14 12:06:00,
2013-05-14 08:11:00,55.0,46.9,30.27,North,0,7.0,13.0,74,0.00,,---,0.00,VWS V14.00,2013-05-14 12:11:00,
2013-05-14 08:16:00,55.1,46.6,30.27,North,350,10.0,13.0,73,0.00,,---,0.00,VWS V14.00,2013-05-14 12:16:00,
2013-05-14 08:21:00,55.2,46.3,30.28,North,351,8.0,14.0,72,0.00,,---,0.00,VWS V14.00,2013-05-14 12:21:00,
2013-05-14 08:26:00,55.3,46.1,30.27,North,357,6.0,14.0,71,0.00,,---,0.00,VWS V14.00,2013-05-14 12:26:00,
2013-05-14 08:31:00,55.3,45.7,30.28,North,354,5.0,10.0,70,0.00,,---,0.00,VWS V14.00,2013-05-14 12:31:00,
2013-05-14 08:36:00,55.5,45.9,30.28,NNW,344,9.0,10.0,70,0.00,,---,0.00,VWS V14.00,2013-05-14 12:36:00,
2013-05-14 08:41:00,55.6,45.6,30.28,North,358,8.0,10.0,69,0.00,,---,0.00,VWS V14.00,2013-05-14 12:41:00,
2013-05-14 08:46:00,55.7,45.7,30.28,North,1,10.0,13.0,69,0.00,,---,0.00,VWS V14.00,2013-05-14 12:46:00,
2013-05-14 08:51:00,55.8,46.2,30.28,North,355,8.0,13.0,70,0.00,,---,0.00,VWS V14.00,2013-05-14 12:51:00,
2013-05-14 08:56:00,55.9,44.7,30.28,North,1,6.0,13.0,66,0.00,,---,0.00,VWS V14.00,2013-05-14 12:56:00,
2013-05-14 09:01:00,56.0,45.2,30.28,NNW,345,6.0,8.0,67,0.00,,---,0.00,VWS V14.00,2013-05-14 13:01:00,
2013-05-14 09:06:00,56.0,45.2,30.28,North,5,9.0,11.0,67,0.00,,---,0.00,VWS V14.00,2013-05-14 13:06:00,
2013-05-14 09:11:00,56.1,43.3,30.28,NNE,29,8.0,12.0,62,0.00,,---,0.00,VWS V14.00,2013-05-14 13:11:00,
2013-05-14 09:16:00,56.3,44.7,30.28,North,354,6.0,12.0,65,0.00,,---,0.00,VWS V14.00,2013-05-14 13:16:00,
2013-05-14 09:21:00,56.4,44.8,30.28,North,359,4.0,12.0,65,0.00,,---,0.00,VWS V14.00,2013-05-14 13:21:00,
2013-05-14 09:26:00,56.5,44.5,30.29,North,2,3.0,12.0,64,0.00,,---,0.00,VWS V14.00,2013-05-14 13:26:00,
2013-05-14 09:31:00,56.7,43.8,30.28,North,0,6.0,8.0,62,0.00,,---,0.00,VWS V14.00,2013-05-14 13:31:00,
2013-05-14 09:36:00,56.8,43.9,30.28,North,357,5.0,9.0,62,0.00,,---,0.00,VWS V14.00,2013-05-14 13:36:00,
2013-05-14 09:41:00,56.8,42.2,30.28,NNE,20,1.0,9.0,58,0.00,,---,0.00,VWS V14.00,2013-05-14 13:41:00,
2013-05-14 09:46:00,57.0,42.8,30.28,North,10,8.0,10.0,59,0.00,,---,0.00,VWS V14.00,2013-05-14 13:46:00,
2013-05-14 09:51:00,57.2,42.6,30.28,NNW,338,3.0,10.0,58,0.00,,---,0.00,VWS V14.00,2013-05-14 13:51:00,
2013-05-14 09:56:00,57.3,42.2,30.28,NNW,341,2.0,10.0,57,0.00,,---,0.00,VWS V14.00,2013-05-14 13:56:00,
2013-05-14 10:01:00,57.5,43.7,30.28,NNW,343,7.0,8.0,60,0.00,,---,0.00,VWS V14.00,2013-05-14 14:01:00,
2013-05-14 10:06:00,57.8,43.6,30.28,NNW,345,3.0,8.0,59,0.00,,---,0.00,VWS V14.00,2013-05-14 14:06:00,
2013-05-14 10:11:00,58.0,43.8,30.29,NNE,12,4.0,8.0,59,0.00,,---,0.00,VWS V14.00,2013-05-14 14:11:00,
2013-05-14 10:16:00,58.2,43.5,30.28,NNW,340,3.0,8.0,58,0.00,,---,0.00,VWS V14.00,2013-05-14 14:16:00,
2013-05-14 10:21:00,58.5,44.2,30.29,NW,313,4.0,8.0,59,0.00,,---,0.00,VWS V14.00,2013-05-14 14:21:00,
2013-05-14 10:26:00,59.2,44.0,30.29,NW,315,7.0,11.0,57,0.00,,---,0.00,VWS V14.00,2013-05-14 14:26:00,
2013-05-14 10:31:00,59.9,44.7,30.29,NW,322,4.0,7.0,57,0.00,,---,0.00,VWS V14.00,2013-05-14 14:31:00,
2013-05-14 10:36:00,60.3,44.1,30.28,NW,321,6.0,8.0,55,0.00,,---,0.00,VWS V14.00,2013-05-14 14:36:00,
2013-05-14 10:41:00,60.9,44.2,30.29,NNW,333,12.0,15.0,54,0.00,,---,0.00,VWS V14.00,2013-05-14 14:41:00,
2013-05-14 10:46:00,61.3,44.0,30.29,NNW,329,7.0,15.0,53,0.00,,---,0.00,VWS V14.00,2013-05-14 14:46:00,
2013-05-14 10:51:00,61.6,44.3,30.29,NNW,330,9.0,15.0,53,0.00,,---,0.00,VWS V14.00,2013-05-14 14:51:00,
2013-05-14 10:56:00,61.7,43.4,30.29,NNW,331,4.0,15.0,51,0.00,,---,0.00,VWS V14.00,2013-05-14 14:56:00,
2013-05-14 11:01:00,61.6,43.3,30.29,NW,305,11.0,12.0,51,0.00,,---,0.00,VWS V14.00,2013-05-14 15:01:00,
2013-05-14 11:06:00,62.4,44.6,30.29,NW,314,13.0,15.0,52,0.00,,---,0.00,VWS V14.00,2013-05-14 15:06:00,
2013-05-14 11:11:00,62.7,43.3,30.29,NNW,336,13.0,15.0,49,0.00,,---,0.00,VWS V14.00,2013-05-14 15:11:00,
2013-05-14 11:16:00,62.3,42.9,30.28,NW,315,6.0,15.0,49,0.00,,---,0.00,VWS V14.00,2013-05-14 15:16:00,
2013-05-14 11:21:00,62.7,44.3,30.28,NNW,342,13.0,18.0,51,0.00,,---,0.00,VWS V14.00,2013-05-14 15:21:00,
2013-05-14 11:26:00,63.1,43.1,30.28,NW,304,10.0,18.0,48,0.00,,---,0.00,VWS V14.00,2013-05-14 15:26:00,
2013-05-14 11:31:00,63.6,44.1,30.28,NNW,327,12.0,21.0,49,0.00,,---,0.00,VWS V14.00,2013-05-14 15:31:00,
2013-05-14 11:36:00,63.7,43.7,30.28,North,350,10.0,21.0,48,0.00,,---,0.00,VWS V14.00,2013-05-14 15:36:00,
2013-05-14 11:41:00,63.5,43.5,30.27,NW,322,7.0,21.0,48,0.00,,---,0.00,VWS V14.00,2013-05-14 15:41:00,
2013-05-14 11:46:00,63.6,41.3,30.27,North,2,5.0,21.0,44,0.00,,---,0.00,VWS V14.00,2013-05-14 15:46:00,
2013-05-14 11:51:00,63.1,40.9,30.26,NNE,23,12.0,21.0,44,0.00,,---,0.00,VWS V14.00,2013-05-14 15:51:00,
2013-05-14 11:56:00,63.0,43.0,30.26,North,9,11.0,21.0,48,0.00,,---,0.00,VWS V14.00,2013-05-14 15:56:00,
2013-05-14 12:01:00,63.0,43.6,30.25,North,353,9.0,13.0,49,0.00,,---,0.00,VWS V14.00,2013-05-14 16:01:00,
2013-05-14 12:06:00,63.3,45.9,30.25,North,3,19.0,20.0,53,0.00,,---,0.00,VWS V14.00,2013-05-14 16:06:00,
2013-05-14 12:11:00,63.5,44.0,30.26,North,350,14.0,21.0,49,0.00,,---,0.00,VWS V14.00,2013-05-14 16:11:00,
2013-05-14 12:16:00,63.8,43.8,30.26,NNW,347,15.0,21.0,48,0.00,,---,0.00,VWS V14.00,2013-05-14 16:16:00,
2013-05-14 12:21:00,63.7,43.1,30.26,North,4,17.0,21.0,47,0.00,,---,0.00,VWS V14.00,2013-05-14 16:21:00,
2013-05-14 12:26:00,63.5,44.0,30.26,North,350,12.0,21.0,49,0.00,,---,0.00,VWS V14.00,2013-05-14 16:26:00,
2013-05-14 12:31:00,63.4,41.1,30.26,NNW,337,18.0,19.0,44,0.00,,---,0.00,VWS V14.00,2013-05-14 16:31:00,
2013-05-14 12:36:00,63.8,43.2,30.26,NNW,347,9.0,19.0,47,0.00,,---,0.00,VWS V14.00,2013-05-14 16:36:00,
2013-05-14 12:41:00,63.9,43.8,30.26,North,2,19.0,19.0,48,0.00,,---,0.00,VWS V14.00,2013-05-14 16:41:00,
2013-05-14 12:46:00,64.1,43.5,30.26,NNW,333,11.0,21.0,47,0.00,,---,0.00,VWS V14.00,2013-05-14 16:46:00,
2013-05-14 12:51:00,64.5,43.3,30.26,North,0,8.0,21.0,46,0.00,,---,0.00,VWS V14.00,2013-05-14 16:51:00,
2013-05-14 12:56:00,64.3,42.5,30.26,North,0,7.0,21.0,45,0.00,,---,0.00,VWS V14.00,2013-05-14 16:56:00,
2013-05-14 13:01:00,64.4,44.8,30.25,NNW,348,9.0,19.0,49,0.00,,---,0.00,VWS V14.00,2013-05-14 17:01:00,
2013-05-14 13:06:00,64.7,43.5,30.26,NNW,340,12.0,20.0,46,0.00,,---,0.00,VWS V14.00,2013-05-14 17:06:00,
2013-05-14 13:11:00,65.1,44.9,30.26,North,350,12.0,20.0,48,0.00,,---,0.00,VWS V14.00,2013-05-14 17:11:00,
2013-05-14 13:16:00,65.6,44.8,30.25,North,358,14.0,20.0,47,0.00,,---,0.00,VWS V14.00,2013-05-14 17:16:00,
2013-05-14 13:21:00,65.4,45.2,30.25,North,349,11.0,20.0,48,0.00,,---,0.00,VWS V14.00,2013-05-14 17:21:00,
2013-05-14 13:26:00,65.5,45.3,30.25,NNW,344,14.0,20.0,48,0.00,,---,0.00,VWS V14.00,2013-05-14 17:26:00,
2013-05-14 13:31:00,65.7,44.4,30.25,North,357,10.0,15.0,46,0.00,,---,0.00,VWS V14.00,2013-05-14 17:31:00,
2013-05-14 13:36:00,65.7,44.4,30.24,NNW,345,10.0,19.0,46,0.00,,---,0.00,VWS V14.00,2013-05-14 17:36:00,
2013-05-14 13:41:00,66.0,44.7,30.23,NW,313,7.0,19.0,46,0.00,,---,0.00,VWS V14.00,2013-05-14 17:41:00,
2013-05-14 13:46:00,66.6,43.4,30.23,North,359,6.0,19.0,43,0.00,,---,0.00,VWS V14.00,2013-05-14 17:46:00,
2013-05-14 13:51:00,66.6,42.8,30.23,North,358,6.0,19.0,42,0.00,,---,0.00,VWS V14.00,2013-05-14 17:51:00,
2013-05-14 13:56:00,66.6,45.8,30.24,NNW,341,7.0,19.0,47,0.00,,---,0.00,VWS V14.00,2013-05-14 17:56:00,
2013-05-14 14:01:00,66.7,44.1,30.23,North,9,4.0,7.0,44,0.00,,---,0.00,VWS V14.00,2013-05-14 18:01:00,
2013-05-14 14:06:00,66.5,43.9,30.23,North,3,5.0,12.0,44,0.00,,---,0.00,VWS V14.00,2013-05-14 18:06:00,
2013-05-14 14:11:00,66.5,45.1,30.23,NNW,340,8.0,13.0,46,0.00,,---,0.00,VWS V14.00,2013-05-14 18:11:00,
2013-05-14 14:16:00,67.3,46.4,30.23,NNW,334,9.0,13.0,47,0.00,,---,0.00,VWS V14.00,2013-05-14 18:16:00,
2013-05-14 14:21:00,68.3,45.6,30.23,NW,326,0.0,13.0,44,0.00,,---,0.00,VWS V14.00,2013-05-14 18:21:00,
2013-05-14 14:26:00,68.6,45.8,30.23,West,277,7.0,13.0,44,0.00,,---,0.00,VWS V14.00,2013-05-14 18:26:00,
2013-05-14 14:31:00,69.0,46.2,30.23,NW,315,10.0,13.0,44,0.00,,---,0.00,VWS V14.00,2013-05-14 18:31:00,
2013-05-14 14:36:00,69.7,46.2,30.23,NW,312,3.0,13.0,43,0.00,,---,0.00,VWS V14.00,2013-05-14 18:36:00,
2013-05-14 14:41:00,69.7,45.0,30.22,NNE,26,5.0,13.0,41,0.00,,---,0.00,VWS V14.00,2013-05-14 18:41:00,
2013-05-14 14:46:00,69.1,45.7,30.22,North,351,5.0,13.0,43,0.00,,---,0.00,VWS V14.00,2013-05-14 18:46:00,
2013-05-14 14:51:00,69.4,46.6,30.22,NNW,327,11.0,13.0,44,0.00,,---,0.00,VWS V14.00,2013-05-14 18:51:00,
2013-05-14 14:56:00,69.7,46.8,30.21,NNW,336,7.0,13.0,44,0.00,,---,0.00,VWS V14.00,2013-05-14 18:56:00,
2013-05-14 15:01:00,70.3,47.4,30.21,WNW,290,5.0,8.0,44,0.00,,---,0.00,VWS V14.00,2013-05-14 19:01:00,
2013-05-14 15:06:00,70.8,47.2,30.21,WNW,301,7.0,11.0,43,0.00,,---,0.00,VWS V14.00,2013-05-14 19:06:00,
2013-05-14 15:11:00,71.2,46.3,30.21,NNW,332,3.0,11.0,41,0.00,,---,0.00,VWS V14.00,2013-05-14 19:11:00,
2013-05-14 15:16:00,71.1,46.9,30.21,NNW,343,4.0,11.0,42,0.00,,---,0.00,VWS V14.00,2013-05-14 19:16:00,
2013-05-14 15:21:00,70.6,43.8,30.20,NNE,21,3.0,11.0,38,0.00,,---,0.00,VWS V14.00,2013-05-14 19:21:00,
2013-05-14 15:26:00,70.4,46.9,30.21,NNW,335,5.0,11.0,43,0.00,,---,0.00,VWS V14.00,2013-05-14 19:26:00,
2013-05-14 15:31:00,70.6,45.1,30.20,NNW,345,0.0,3.0,40,0.00,,---,0.00,VWS V14.00,2013-05-14 19:31:00,
2013-05-14 15:36:00,71.0,46.1,30.20,WNW,297,8.0,13.0,41,0.00,,---,0.00,VWS V14.00,2013-05-14 19:36:00,
2013-05-14 15:41:00,71.0,45.5,30.20,West,269,6.0,13.0,40,0.00,,---,0.00,VWS V14.00,2013-05-14 19:41:00,
2013-05-14 15:46:00,70.8,45.3,30.20,WNW,294,8.0,13.0,40,0.00,,---,0.00,VWS V14.00,2013-05-14 19:46:00,
2013-05-14 15:51:00,70.7,44.5,30.20,West,281,2.0,13.0,39,0.00,,---,0.00,VWS V14.00,2013-05-14 19:51:00,
2013-05-14 15:56:00,70.8,48.4,30.19,SSW,201,10.0,13.0,45,0.00,,---,0.00,VWS V14.00,2013-05-14 19:56:00,
2013-05-14 16:01:00,70.9,48.5,30.20,SW,219,1.0,12.0,45,0.00,,---,0.00,VWS V14.00,2013-05-14 20:01:00,
2013-05-14 16:06:00,71.0,49.8,30.19,SSW,204,6.0,13.0,47,0.00,,---,0.00,VWS V14.00,2013-05-14 20:06:00,
2013-05-14 16:11:00,71.0,49.2,30.19,SSW,198,3.0,13.0,46,0.00,,---,0.00,VWS V14.00,2013-05-14 20:11:00,
2013-05-14 16:16:00,71.2,47.0,30.20,WSW,256,7.0,13.0,42,0.00,,---,0.00,VWS V14.00,2013-05-14 20:16:00,
2013-05-14 16:21:00,71.1,48.1,30.19,South,186,2.0,13.0,44,0.00,,---,0.00,VWS V14.00,2013-05-14 20:21:00,
2013-05-14 16:26:00,71.2,47.6,30.19,SW,226,10.0,13.0,43,0.00,,---,0.00,VWS V14.00,2013-05-14 20:26:00,
2013-05-14 16:31:00,71.2,48.8,30.19,SW,230,7.0,12.0,45,0.00,,---,0.00,VWS V14.00,2013-05-14 20:31:00,
2013-05-14 16:36:00,71.1,48.7,30.19,SSW,210,8.0,17.0,45,0.00,,---,0.00,VWS V14.00,2013-05-14 20:36:00,
2013-05-14 16:41:00,70.8,49.0,30.19,SW,222,17.0,18.0,46,0.00,,---,0.00,VWS V14.00,2013-05-14 20:41:00,
2013-05-14 16:46:00,70.5,50.4,30.19,SW,220,11.0,18.0,49,0.00,,---,0.00,VWS V14.00,2013-05-14 20:46:00,
2013-05-14 16:51:00,70.2,49.0,30.19,SSW,209,11.0,18.0,47,0.00,,---,0.00,VWS V14.00,2013-05-14 20:51:00,
2013-05-14 16:56:00,70.1,49.5,30.19,SW,215,13.0,18.0,48,0.00,,---,0.00,VWS V14.00,2013-05-14 20:56:00,
2013-05-14 17:01:00,69.9,50.4,30.19,SSW,211,12.0,16.0,50,0.00,,---,0.00,VWS V14.00,2013-05-14 21:01:00,
2013-05-14 17:06:00,69.6,49.6,30.20,SW,214,11.0,16.0,49,0.00,,---,0.00,VWS V14.00,2013-05-14 21:06:00,
2013-05-14 17:11:00,69.5,51.1,30.20,SSW,209,15.0,17.0,52,0.00,,---,0.00,VWS V14.00,2013-05-14 21:11:00,
2013-05-14 17:16:00,69.3,49.3,30.20,SW,216,11.0,17.0,49,0.00,,---,0.00,VWS V14.00,2013-05-14 21:16:00,
2013-05-14 17:21:00,69.1,51.3,30.20,SW,221,16.0,24.0,53,0.00,,---,0.00,VWS V14.00,2013-05-14 21:21:00,
2013-05-14 17:26:00,68.7,50.9,30.20,SW,223,13.0,24.0,53,0.00,,---,0.00,VWS V14.00,2013-05-14 21:26:00,
2013-05-14 17:31:00,68.4,50.6,30.20,SW,222,17.0,21.0,53,0.00,,---,0.00,VWS V14.00,2013-05-14 21:31:00,
2013-05-14 17:36:00,68.1,50.3,30.21,SW,231,16.0,21.0,53,0.00,,---,0.00,VWS V14.00,2013-05-14 21:36:00,
2013-05-14 17:41:00,67.9,50.2,30.20,SW,223,14.0,21.0,53,0.00,,---,0.00,VWS V14.00,2013-05-14 21:41:00,
2013-05-14 17:46:00,67.6,49.9,30.20,SW,217,12.0,21.0,53,0.00,,---,0.00,VWS V14.00,2013-05-14 21:46:00,
2013-05-14 17:51:00,67.5,51.3,30.21,SW,220,10.0,21.0,56,0.00,,---,0.00,VWS V14.00,2013-05-14 21:51:00,
2013-05-14 17:56:00,67.4,52.1,30.20,SW,224,16.0,21.0,58,0.00,,---,0.00,VWS V14.00,2013-05-14 21:56:00,
2013-05-14 18:01:00,67.3,51.6,30.21,SW,228,12.0,16.0,57,0.00,,---,0.00,VWS V14.00,2013-05-14 22:01:00,
2013-05-14 18:06:00,67.1,51.4,30.21,SW,222,12.0,17.0,57,0.00,,---,0.00,VWS V14.00,2013-05-14 22:06:00,
2013-05-14 18:11:00,66.9,50.7,30.21,SSW,207,9.0,18.0,56,0.00,,---,0.00,VWS V14.00,2013-05-14 22:11:00,
2013-05-14 18:16:00,66.7,49.5,30.21,SW,221,12.0,20.0,54,0.00,,---,0.00,VWS V14.00,2013-05-14 22:16:00,
2013-05-14 18:21:00,66.5,51.3,30.21,SW,231,12.0,20.0,58,0.00,,---,0.00,VWS V14.00,2013-05-14 22:21:00,
2013-05-14 18:26:00,66.2,50.1,30.21,SW,234,13.0,20.0,56,0.00,,---,0.00,VWS V14.00,2013-05-14 22:26:00,
2013-05-14 18:31:00,66.0,50.8,30.21,SW,228,14.0,17.0,58,0.00,,---,0.00,VWS V14.00,2013-05-14 22:31:00,
2013-05-14 18:36:00,65.9,50.7,30.20,SW,234,11.0,17.0,58,0.00,,---,0.00,VWS V14.00,2013-05-14 22:36:00,
2013-05-14 18:41:00,65.6,50.0,30.20,SW,224,12.0,18.0,57,0.00,,---,0.00,VWS V14.00,2013-05-14 22:41:00,
2013-05-14 18:46:00,65.5,49.9,30.20,SW,232,14.0,18.0,57,0.00,,---,0.00,VWS V14.00,2013-05-14 22:46:00,
2013-05-14 18:51:00,65.3,50.6,30.20,WSW,237,13.0,18.0,59,0.00,,---,0.00,VWS V14.00,2013-05-14 22:51:00,
2013-05-14 18:56:00,65.1,50.4,30.20,SW,234,13.0,18.0,59,0.00,,---,0.00,VWS V14.00,2013-05-14 22:56:00,
2013-05-14 19:01:00,65.0,50.8,30.20,SW,222,10.0,15.0,60,0.00,,---,0.00,VWS V14.00,2013-05-14 23:01:00,
2013-05-14 19:06:00,64.8,50.2,30.20,SW,236,12.0,17.0,59,0.00,,---,0.00,VWS V14.00,2013-05-14 23:06:00,
2013-05-14 19:11:00,64.6,50.0,30.20,SW,214,8.0,17.0,59,0.00,,---,0.00,VWS V14.00,2013-05-14 23:11:00,
2013-05-14 19:16:00,64.5,50.3,30.20,SW,232,9.0,17.0,60,0.00,,---,0.00,VWS V14.00,2013-05-14 23:16:00,
2013-05-14 19:21:00,64.4,50.7,30.20,SW,236,15.0,17.0,61,0.00,,---,0.00,VWS V14.00,2013-05-14 23:21:00,
2013-05-14 19:26:00,64.2,50.5,30.19,SW,226,10.0,17.0,61,0.00,,---,0.00,VWS V14.00,2013-05-14 23:26:00,
2013-05-14 19:31:00,64.0,49.8,30.19,SW,223,11.0,17.0,60,0.00,,---,0.00,VWS V14.00,2013-05-14 23:31:00,
2013-05-14 19:36:00,63.7,50.5,30.20,SSW,211,9.0,18.0,62,0.00,,---,0.00,VWS V14.00,2013-05-14 23:36:00,
2013-05-14 19:41:00,63.6,50.8,30.19,SW,222,12.0,18.0,63,0.00,,---,0.00,VWS V14.00,2013-05-14 23:41:00,
2013-05-14 19:46:00,63.4,50.6,30.19,SW,233,15.0,18.0,63,0.00,,---,0.00,VWS V14.00,2013-05-14 23:46:00,
2013-05-14 19:51:00,63.2,50.0,30.19,SW,222,15.0,18.0,62,0.00,,---,0.00,VWS V14.00,2013-05-14 23:51:00,
2013-05-14 19:56:00,63.1,50.7,30.19,SW,233,15.0,18.0,64,0.00,,---,0.00,VWS V14.00,2013-05-14 23:56:00,
2013-05-14 20:01:00,62.9,50.1,30.20,SW,233,17.0,19.0,63,0.00,,---,0.00,VWS V14.00,2013-05-15 00:01:00,
2013-05-14 20:06:00,62.8,50.0,30.20,WSW,242,13.0,19.0,63,0.00,,---,0.00,VWS V14.00,2013-05-15 00:06:00,
2013-05-14 20:11:00,62.8,50.9,30.20,WSW,247,11.0,19.0,65,0.00,,---,0.00,VWS V14.00,2013-05-15 00:11:00,
2013-05-14 20:16:00,62.8,51.3,30.20,SW,235,20.0,20.0,66,0.00,,---,0.00,VWS V14.00,2013-05-15 00:16:00,
2013-05-14 20:21:00,62.8,51.3,30.21,WSW,237,12.0,20.0,66,0.00,,---,0.00,VWS V14.00,2013-05-15 00:21:00,
2013-05-14 20:26:00,62.8,51.3,30.21,SW,236,11.0,20.0,66,0.00,,---,0.00,VWS V14.00,2013-05-15 00:26:00,
2013-05-14 20:31:00,62.8,52.1,30.21,SW,230,8.0,11.0,68,0.00,,---,0.00,VWS V14.00,2013-05-15 00:31:00,
2013-05-14 20:36:00,62.8,52.1,30.21,WSW,237,11.0,16.0,68,0.00,,---,0.00,VWS V14.00,2013-05-15 00:36:00,
2013-05-14 20:41:00,62.7,51.6,30.21,SW,224,10.0,16.0,67,0.00,,---,0.00,VWS V14.00,2013-05-15 00:41:00,
2013-05-14 20:46:00,62.6,51.9,30.21,SW,228,17.0,17.0,68,0.00,,---,0.00,VWS V14.00,2013-05-15 00:46:00,
2013-05-14 20:51:00,62.6,51.9,30.21,WSW,240,13.0,20.0,68,0.00,,---,0.00,VWS V14.00,2013-05-15 00:51:00,
2013-05-14 20:56:00,62.6,51.9,30.21,SW,219,10.0,20.0,68,0.00,,---,0.00,VWS V14.00,2013-05-15 00:56:00,
2013-05-14 21:01:00,62.7,52.0,30.21,SW,229,14.0,15.0,68,0.00,,---,0.00,VWS V14.00,2013-05-15 01:01:00,
2013-05-14 21:06:00,62.7,52.0,30.21,SW,224,18.0,20.0,68,0.00,,---,0.00,VWS V14.00,2013-05-15 01:06:00,
2013-05-14 21:11:00,62.7,51.2,30.20,SW,224,14.0,21.0,66,0.00,,---,0.00,VWS V14.00,2013-05-15 01:11:00,
2013-05-14 21:16:00,62.8,51.7,30.20,SW,228,14.0,21.0,67,0.00,,---,0.00,VWS V14.00,2013-05-15 01:16:00,
2013-05-14 21:21:00,62.9,52.6,30.20,SW,223,9.0,21.0,69,0.00,,---,0.00,VWS V14.00,2013-05-15 01:21:00,
2013-05-14 21:26:00,62.9,51.8,30.21,SW,224,12.0,21.0,67,0.00,,---,0.00,VWS V14.00,2013-05-15 01:26:00,
2013-05-14 21:31:00,62.9,52.2,30.21,SW,222,11.0,17.0,68,0.00,,---,0.00,VWS V14.00,2013-05-15 01:31:00,
2013-05-14 21:36:00,62.9,51.8,30.21,SW,226,12.0,17.0,67,0.00,,---,0.00,VWS V14.00,2013-05-15 01:36:00,
2013-05-14 21:41:00,62.9,52.2,30.21,SW,234,16.0,18.0,68,0.00,,---,0.00,VWS V14.00,2013-05-15 01:41:00,
2013-05-14 21:46:00,63.1,52.0,30.22,SW,234,15.0,18.0,67,0.00,,---,0.00,VWS V14.00,2013-05-15 01:46:00,
2013-05-14 21:51:00,63.2,52.1,30.22,SW,234,13.0,21.0,67,0.00,,---,0.00,VWS V14.00,2013-05-15 01:51:00,
2013-05-14 21:56:00,63.4,53.1,30.22,WSW,240,11.0,21.0,69,0.00,,---,0.00,VWS V14.00,2013-05-15 01:56:00,
2013-05-14 22:01:00,63.5,52.8,30.21,SW,229,11.0,15.0,68,0.00,,---,0.00,VWS V14.00,2013-05-15 02:01:00,
2013-05-14 22:06:00,63.6,52.9,30.21,SW,230,14.0,21.0,68,0.00,,---,0.00,VWS V14.00,2013-05-15 02:06:00,
2013-05-14 22:11:00,63.7,53.7,30.21,WSW,244,10.0,21.0,70,0.00,,---,0.00,VWS V14.00,2013-05-15 02:11:00,
2013-05-14 22:16:00,63.8,53.8,30.21,SW,234,10.0,21.0,70,0.00,,---,0.00,VWS V14.00,2013-05-15 02:16:00,
2013-05-14 22:21:00,63.9,53.5,30.20,SW,224,16.0,21.0,69,0.00,,---,0.00,VWS V14.00,2013-05-15 02:21:00,
2013-05-14 22:26:00,64.0,54.8,30.20,WSW,237,16.0,21.0,72,0.00,,---,0.00,VWS V14.00,2013-05-15 02:26:00,
2013-05-14 22:31:00,64.1,54.9,30.21,SW,233,14.0,18.0,72,0.00,,---,0.00,VWS V14.00,2013-05-15 02:31:00,
2013-05-14 22:36:00,64.1,53.7,30.20,WSW,245,14.0,18.0,69,0.00,,---,0.00,VWS V14.00,2013-05-15 02:36:00,
2013-05-14 22:41:00,64.2,54.2,30.21,WSW,238,17.0,18.0,70,0.00,,---,0.00,VWS V14.00,2013-05-15 02:41:00,
2013-05-14 22:46:00,64.3,54.7,30.22,WSW,247,13.0,18.0,71,0.00,,---,0.00,VWS V14.00,2013-05-15 02:46:00,
2013-05-14 22:51:00,64.4,55.2,30.21,WSW,241,9.0,18.0,72,0.00,,---,0.00,VWS V14.00,2013-05-15 02:51:00,
2013-05-14 22:56:00,64.4,54.8,30.21,WSW,237,14.0,19.0,71,0.00,,---,0.00,VWS V14.00,2013-05-15 02:56:00,
2013-05-14 23:01:00,64.5,54.9,30.20,SW,236,10.0,17.0,71,0.00,,---,0.00,VWS V14.00,2013-05-15 03:01:00,
2013-05-14 23:06:00,64.4,54.4,30.20,WSW,240,11.0,20.0,70,0.00,,---,0.00,VWS V14.00,2013-05-15 03:06:00,
2013-05-14 23:11:00,64.4,55.6,30.20,SW,235,11.0,20.0,73,0.00,,---,0.00,VWS V14.00,2013-05-15 03:11:00,
2013-05-14 23:16:00,64.4,54.8,30.19,SW,230,16.0,20.0,71,0.00,,---,0.00,VWS V14.00,2013-05-15 03:16:00,
2013-05-14 23:21:00,64.3,55.1,30.19,SW,227,13.0,20.0,72,0.00,,---,0.00,VWS V14.00,2013-05-15 03:21:00,
2013-05-14 23:26:00,64.3,55.1,30.20,SW,230,11.0,20.0,72,0.00,,---,0.00,VWS V14.00,2013-05-15 03:26:00,
2013-05-14 23:31:00,64.3,55.8,30.20,WSW,237,13.0,13.0,74,0.00,,---,0.00,VWS V14.00,2013-05-15 03:31:00,
2013-05-14 23:36:00,64.2,55.0,30.19,SW,233,12.0,17.0,72,0.00,,---,0.00,VWS V14.00,2013-05-15 03:36:00,
2013-05-14 23:41:00,64.2,55.0,30.20,WSW,243,12.0,17.0,72,0.00,,---,0.00,VWS V14.00,2013-05-15 03:41:00,
2013-05-14 23:46:00,64.3,55.1,30.20,SW,235,10.0,17.0,72,0.00,,---,0.00,VWS V14.00,2013-05-15 03:46:00,
2013-05-14 23:51:00,64.2,54.2,30.20,SW,232,10.0,17.0,70,0.00,,---,0.00,VWS V14.00,2013-05-15 03:51:00,
2013-05-14 23:56:00,64.2,54.6,30.20,SW,236,9.0,17.0,71,0.00,,---,0.00,VWS V14.00,2013-05-15 03:56:00,